Portada
METAR-TAF:

METAR-TAF

Aeropuertos :

Condado de Franklin, Vermont, Estados Unidos

latitud: 44-56-25N, longitud: 073-05-51W, altitud: 69 m

Observación

El informe se hizo hace 13 minutos, a las 20:15 UTC
Viento calma
Temperatura 2°C
Humedad 100%
Presión 1012 hPa
Visibilidad: 8.0 km
Nubes dispersas a una altura de 800 ft
Cielo cubierto a una altura de 1400 ft
neblina

METAR: KFSO 132015Z AUTO 00000KT 5SM BR SCT008 OVC014 02/02 A2987 RMK AO2 T00220022

Hora: 15:28 (20:28 UTC)


TAF: falta

Observaciones y pronósticos meteorológicos de más de 4000 aeropuertos (mensajes METAR y TAF).

Los puntos amarillos y rojos representan las estaciones disponibles.

Ponga el ratón en el punto deseado para ver el nombre de la estación.

Haga clic para ver las observaciones y los pronósticos meteorológicos.

Para cambiar el mapa : haga clic en los botones verdes con una cruz de color negro para hacer un zoom, en el botón verde con un guión para alejar o en las flechas verdes para mapas adyacentes.


METAR-TAF: